Terminal Aerodrome Forecast
Issued by NWS

Home | Current Version | Previous Version | Text Only | Print | Product List | Glossary Off
Versions: 1 2 3 4 5 6 7 8 9 10 11 12 13 14 15 16 17 18 19 20 21 22 23 24 25 26 27 28 29 30 31 32 33 34 35 36

000
FTUS43 KGRB 261735
TAFRHI
TAF
KRHI 261735Z 2618/2718 12004KT 4SM -SHRA BKN012
     FM262200 07008KT 3SM SHRA BR BKN009
     FM262300 02010KT 2SM SHRA BR OVC007
      TEMPO 2700/2704 1SM +RA BR BKN004
     FM270500 31005KT 2SM SHRA BR OVC005
     FM270900 32007KT 4SM RA BR OVC009
     FM271600 27009G15KT 5SM -RA BR BKN015=

USA.gov is the U.S. government's official web portal to all federal, state and local government web resources and services.